Time,TemperatureF,DewpointF,PressureIn,WindDirection,WindDirectionDegrees,WindSpeedMPH,WindSpeedGustMPH,Humidity,HourlyPrecipIn,Conditions,Clouds,dailyrainin,SoftwareType,DateUTC
2013-05-13 00:07:00,41.6,37.0,29.97,West,272,0.0,0.0,82,0.00,,,0.00,weatherlink.com 1.10,2013-05-13 04:07:00,
2013-05-13 00:22:00,41.9,36.0,29.98,WNW,284,0.0,1.0,79,0.00,,,0.00,weatherlink.com 1.10,2013-05-13 04:22:00,
2013-05-13 00:37:00,42.7,35.0,29.98,WNW,302,0.0,0.0,74,0.00,,,0.00,weatherlink.com 1.10,2013-05-13 04:37:00,
2013-05-13 00:52:00,43.0,35.0,29.98,WNW,298,0.0,2.0,72,0.00,,,0.00,weatherlink.com 1.10,2013-05-13 04:52:00,
2013-05-13 01:07:00,41.6,36.0,29.98,NW,316,0.0,0.0,79,0.00,,,0.00,weatherlink.com 1.10,2013-05-13 05:07:00,
2013-05-13 01:22:00,40.1,34.0,29.99,NW,322,0.0,0.0,79,0.00,,,0.00,weatherlink.com 1.10,2013-05-13 05:22:00,
2013-05-13 01:38:00,39.6,35.0,29.99,NW,324,0.0,0.0,82,0.00,,,0.00,weatherlink.com 1.10,2013-05-13 05:38:00,
2013-05-13 01:53:00,38.3,35.0,29.99,NW,323,0.0,0.0,87,0.00,,,0.00,weatherlink.com 1.10,2013-05-13 05:53:00,
2013-05-13 02:08:00,36.7,34.0,29.99,NW,324,0.0,0.0,88,0.00,,,0.00,weatherlink.com 1.10,2013-05-13 06:08:00,
2013-05-13 02:23:00,35.5,32.0,29.98,NW,324,0.0,0.0,88,0.00,,,0.00,weatherlink.com 1.10,2013-05-13 06:23:00,
2013-05-13 02:38:00,34.7,32.0,29.99,NNW,334,0.0,0.0,88,0.00,,,0.00,weatherlink.com 1.10,2013-05-13 06:38:00,
2013-05-13 02:53:00,35.5,32.0,29.98,NNW,334,0.0,0.0,87,0.00,,,0.00,weatherlink.com 1.10,2013-05-13 06:53:00,
2013-05-13 03:08:00,36.4,33.0,29.99,WNW,299,0.0,0.0,88,0.00,,,0.00,weatherlink.com 1.10,2013-05-13 07:08:00,
2013-05-13 03:23:00,37.7,34.0,29.99,North,352,1.0,1.0,86,0.00,,,0.00,weatherlink.com 1.10,2013-05-13 07:23:00,
2013-05-13 03:38:00,39.4,34.0,29.99,NW,319,0.0,3.0,80,0.00,,,0.00,weatherlink.com 1.10,2013-05-13 07:38:00,
2013-05-13 03:53:00,39.3,35.0,30.00,SSE,149,0.0,3.0,85,0.00,,,0.00,weatherlink.com 1.10,2013-05-13 07:53:00,
2013-05-13 04:08:00,37.6,34.0,30.00,SSW,205,0.0,0.0,87,0.00,,,0.00,weatherlink.com 1.10,2013-05-13 08:08:00,
2013-05-13 04:23:00,36.0,33.0,30.00,SSW,205,0.0,0.0,88,0.00,,,0.00,weatherlink.com 1.10,2013-05-13 08:23:00,
2013-05-13 04:38:00,35.1,32.0,30.01,SSW,204,0.0,0.0,89,0.00,,,0.00,weatherlink.com 1.10,2013-05-13 08:38:00,
2013-05-13 04:53:00,34.1,31.0,30.01,SSW,204,0.0,0.0,89,0.00,,,0.00,weatherlink.com 1.10,2013-05-13 08:53:00,
2013-05-13 05:08:00,34.4,31.0,30.02,SSE,147,0.0,0.0,86,0.00,,,0.00,weatherlink.com 1.10,2013-05-13 09:08:00,
2013-05-13 05:23:00,33.6,30.0,30.02,SSE,147,0.0,0.0,88,0.00,,,0.00,weatherlink.com 1.10,2013-05-13 09:23:00,
2013-05-13 05:38:00,33.4,30.0,30.02,SSE,147,0.0,0.0,87,0.00,,,0.00,weatherlink.com 1.10,2013-05-13 09:38:00,
2013-05-13 05:53:00,33.6,30.0,30.03,SSE,147,0.0,0.0,87,0.00,,,0.00,weatherlink.com 1.10,2013-05-13 09:53:00,
2013-05-13 06:08:00,33.9,31.0,30.03,SSE,147,0.0,0.0,87,0.00,,,0.00,weatherlink.com 1.10,2013-05-13 10:08:00,
2013-05-13 06:23:00,34.7,32.0,30.04,SSE,147,0.0,0.0,88,0.00,,,0.00,weatherlink.com 1.10,2013-05-13 10:23:00,
2013-05-13 06:38:00,37.3,34.0,30.04,SSE,147,0.0,0.0,89,0.00,,,0.00,weatherlink.com 1.10,2013-05-13 10:38:00,
2013-05-13 06:53:00,40.6,37.0,30.04,SSE,147,0.0,0.0,88,0.00,,,0.00,weatherlink.com 1.10,2013-05-13 10:53:00,
2013-05-13 07:08:00,42.0,38.0,30.05,SE,146,0.0,0.0,87,0.00,,,0.00,weatherlink.com 1.10,2013-05-13 11:08:00,
2013-05-13 07:23:00,46.5,41.0,30.05,SE,146,0.0,0.0,81,0.00,,,0.00,weatherlink.com 1.10,2013-05-13 11:23:00,
2013-05-13 07:38:00,48.8,38.0,30.05,WNW,287,0.0,0.0,67,0.00,,,0.00,weatherlink.com 1.10,2013-05-13 11:38:00,
2013-05-13 07:53:00,49.8,38.0,30.06,WNW,286,1.0,5.0,65,0.00,,,0.00,weatherlink.com 1.10,2013-05-13 11:53:00,
2013-05-13 08:08:00,50.8,36.0,30.06,NW,323,6.0,6.0,58,0.00,,,0.00,weatherlink.com 1.10,2013-05-13 12:08:00,
2013-05-13 08:23:00,51.7,34.0,30.06,West,280,3.0,6.0,51,0.00,,,0.00,weatherlink.com 1.10,2013-05-13 12:23:00,
2013-05-13 08:39:00,52.4,35.0,30.06,WNW,293,7.0,8.0,51,0.00,,,0.00,weatherlink.com 1.10,2013-05-13 12:39:00,
2013-05-13 08:54:00,53.3,34.0,30.06,NW,310,6.0,10.0,49,0.00,,,0.00,weatherlink.com 1.10,2013-05-13 12:54:00,
2013-05-13 09:09:00,53.4,33.0,30.06,NW,325,8.0,9.0,46,0.00,,,0.00,weatherlink.com 1.10,2013-05-13 13:09:00,
2013-05-13 09:24:00,53.8,33.0,30.06,WNW,300,3.0,8.0,45,0.00,,,0.00,weatherlink.com 1.10,2013-05-13 13:24:00,
2013-05-13 09:39:00,54.0,33.0,30.05,West,280,3.0,9.0,45,0.00,,,0.00,weatherlink.com 1.10,2013-05-13 13:39:00,
2013-05-13 09:54:00,54.5,34.0,30.05,SW,235,2.0,8.0,47,0.00,,,0.00,weatherlink.com 1.10,2013-05-13 13:54:00,
2013-05-13 10:09:00,54.9,32.0,30.06,WSW,243,3.0,11.0,42,0.00,,,0.00,weatherlink.com 1.10,2013-05-13 14:09:00,
2013-05-13 10:24:00,56.3,33.0,30.05,SW,220,10.0,14.0,42,0.00,,,0.00,weatherlink.com 1.10,2013-05-13 14:24:00,
2013-05-13 10:39:00,55.4,32.0,30.05,WSW,248,2.0,13.0,42,0.00,,,0.00,weatherlink.com 1.10,2013-05-13 14:39:00,
2013-05-13 10:54:00,54.7,32.0,30.05,SW,228,9.0,12.0,42,0.00,,,0.00,weatherlink.com 1.10,2013-05-13 14:54:00,
2013-05-13 11:09:00,55.1,32.0,30.05,West,259,5.0,13.0,42,0.00,,,0.00,weatherlink.com 1.10,2013-05-13 15:09:00,
2013-05-13 11:24:00,56.5,31.0,30.05,WNW,290,13.0,17.0,38,0.00,,,0.00,weatherlink.com 1.10,2013-05-13 15:24:00,
2013-05-13 11:39:00,55.3,32.0,30.05,WNW,291,5.0,14.0,41,0.00,,,0.00,weatherlink.com 1.10,2013-05-13 15:39:00,
2013-05-13 11:57:00,56.6,30.0,30.04,WSW,254,4.0,14.0,36,0.00,,,0.00,weatherlink.com 1.10,2013-05-13 15:57:00,
2013-05-13 12:04:00,57.3,31.2,30.04,SW,235,6.0,6.0,37,0.00,,,0.00,Wunderground v.1.15,2013-05-13 16:04:00,
2013-05-13 12:10:00,57.6,31.5,30.04,NNW,330,5.0,14.0,37,0.00,,,0.00,Wunderground v.1.15,2013-05-13 16:10:00,
2013-05-13 12:15:00,57.0,31.6,30.04,West,272,7.0,7.0,38,0.00,,,0.00,Wunderground v.1.15,2013-05-13 16:15:00,
2013-05-13 12:21:00,56.3,31.0,30.04,SW,234,7.0,10.0,38,0.00,,,0.00,Wunderground v.1.15,2013-05-13 16:21:00,
2013-05-13 12:26:00,55.8,31.8,30.04,WSW,244,7.0,7.0,40,0.00,,,0.00,Wunderground v.1.15,2013-05-13 16:26:00,
2013-05-13 12:32:00,55.6,30.4,30.04,WSW,241,6.0,11.0,38,0.00,,,0.00,Wunderground v.1.15,2013-05-13 16:32:00,
2013-05-13 12:38:00,56.9,30.2,30.04,SW,233,7.0,10.0,36,0.00,,,0.00,Wunderground v.1.15,2013-05-13 16:38:00,
2013-05-13 12:43:00,57.4,29.9,30.03,SW,235,6.0,10.0,35,0.00,,,0.00,Wunderground v.1.15,2013-05-13 16:43:00,
2013-05-13 12:49:00,56.8,32.1,30.04,West,271,7.0,8.0,39,0.00,,,0.00,Wunderground v.1.15,2013-05-13 16:49:00,
2013-05-13 12:54:00,56.0,31.0,30.04,WSW,250,3.0,15.0,38,0.00,,,0.00,weatherlink.com 1.10,2013-05-13 16:54:00,
2013-05-13 13:05:00,56.6,31.9,30.03,NW,313,6.0,9.0,39,0.00,,,0.00,Wunderground v.1.15,2013-05-13 17:05:00,
2013-05-13 13:10:00,56.2,31.0,30.04,NW,309,6.0,15.0,39,0.00,,,0.00,weatherlink.com 1.10,2013-05-13 17:10:00,
2013-05-13 13:17:00,56.3,32.3,30.03,NW,323,7.0,7.0,40,0.00,,,0.00,Wunderground v.1.15,2013-05-13 17:17:00,
2013-05-13 13:25:00,57.4,33.0,30.03,WNW,302,9.0,15.0,40,0.00,,,0.00,weatherlink.com 1.10,2013-05-13 17:25:00,
2013-05-13 13:40:00,56.1,32.0,30.03,WNW,290,8.0,14.0,40,0.00,,,0.00,weatherlink.com 1.10,2013-05-13 17:40:00,
2013-05-13 13:55:00,56.5,32.0,30.03,WNW,301,11.0,14.0,39,0.00,,,0.00,weatherlink.com 1.10,2013-05-13 17:55:00,
2013-05-13 14:10:00,55.7,32.0,30.03,NW,319,10.0,14.0,41,0.00,,,0.00,weatherlink.com 1.10,2013-05-13 18:10:00,
2013-05-13 14:40:00,56.4,32.0,30.03,WNW,293,11.0,15.0,39,0.00,,,0.00,weatherlink.com 1.10,2013-05-13 18:40:00,
2013-05-13 14:55:00,55.8,32.0,30.03,WNW,299,3.0,15.0,41,0.00,,,0.00,weatherlink.com 1.10,2013-05-13 18:55:00,
2013-05-13 15:10:00,55.6,33.0,30.02,NNW,338,3.0,14.0,43,0.00,,,0.00,weatherlink.com 1.10,2013-05-13 19:10:00,
2013-05-13 15:25:00,55.3,31.0,30.02,WNW,285,4.0,18.0,40,0.00,,,0.00,weatherlink.com 1.10,2013-05-13 19:25:00,
2013-05-13 15:40:00,55.9,30.0,30.02,WNW,301,6.0,14.0,38,0.00,,,0.00,weatherlink.com 1.10,2013-05-13 19:40:00,
2013-05-13 15:55:00,55.1,30.0,30.02,NW,309,11.0,16.0,38,0.00,,,0.00,weatherlink.com 1.10,2013-05-13 19:55:00,
2013-05-13 16:10:00,55.3,30.0,30.02,West,274,6.0,14.0,38,0.00,,,0.00,weatherlink.com 1.10,2013-05-13 20:10:00,
2013-05-13 16:25:00,55.0,28.0,30.02,NNW,336,7.0,21.0,36,0.00,,,0.00,weatherlink.com 1.10,2013-05-13 20:25:00,
2013-05-13 16:40:00,56.1,29.0,30.02,WNW,298,15.0,19.0,36,0.00,,,0.00,weatherlink.com 1.10,2013-05-13 20:40:00,
2013-05-13 16:55:00,55.7,30.0,30.01,WNW,299,4.0,11.0,37,0.00,,,0.00,weatherlink.com 1.10,2013-05-13 20:55:00,
2013-05-13 17:10:00,55.3,28.0,30.01,WNW,300,4.0,16.0,35,0.00,,,0.00,weatherlink.com 1.10,2013-05-13 21:10:00,
2013-05-13 17:25:00,55.1,28.0,30.01,West,281,12.0,14.0,36,0.00,,,0.00,weatherlink.com 1.10,2013-05-13 21:25:00,
2013-05-13 17:40:00,55.5,25.0,30.01,NW,322,6.0,19.0,31,0.00,,,0.00,weatherlink.com 1.10,2013-05-13 21:40:00,
2013-05-13 17:55:00,55.2,24.0,30.01,WNW,288,6.0,18.0,30,0.00,,,0.00,weatherlink.com 1.10,2013-05-13 21:55:00,
2013-05-13 18:10:00,55.3,25.0,30.01,West,280,3.0,13.0,31,0.00,,,0.00,weatherlink.com 1.10,2013-05-13 22:10:00,
2013-05-13 18:25:00,55.3,26.0,30.01,WNW,295,2.0,14.0,33,0.00,,,0.00,weatherlink.com 1.10,2013-05-13 22:25:00,
2013-05-13 18:40:00,54.3,26.0,30.01,NNE,15,5.0,12.0,34,0.00,,,0.00,weatherlink.com 1.10,2013-05-13 22:40:00,
2013-05-13 18:55:00,53.8,28.0,30.01,NNW,330,4.0,8.0,37,0.00,,,0.00,weatherlink.com 1.10,2013-05-13 22:55:00,
2013-05-13 19:10:00,53.4,28.0,30.02,West,274,1.0,10.0,38,0.00,,,0.00,weatherlink.com 1.10,2013-05-13 23:10:00,
2013-05-13 19:25:00,53.0,28.0,30.02,West,278,4.0,5.0,38,0.00,,,0.00,weatherlink.com 1.10,2013-05-13 23:25:00,
2013-05-13 19:40:00,52.3,25.0,30.03,WNW,295,4.0,9.0,35,0.00,,,0.00,weatherlink.com 1.10,2013-05-13 23:40:00,
2013-05-13 19:55:00,51.0,25.0,30.04,WNW,303,4.0,7.0,36,0.00,,,0.00,weatherlink.com 1.10,2013-05-13 23:55:00,
2013-05-13 20:10:00,50.1,25.0,30.04,NW,317,1.0,5.0,37,0.00,,,0.00,weatherlink.com 1.10,2013-05-14 00:10:00,
2013-05-13 20:25:00,48.5,26.0,30.05,NW,316,0.0,1.0,42,0.00,,,0.00,weatherlink.com 1.10,2013-05-14 00:25:00,
2013-05-13 20:40:00,46.1,32.0,30.05,NNW,330,0.0,0.0,58,0.00,,,0.00,weatherlink.com 1.10,2013-05-14 00:40:00,
2013-05-13 20:55:00,42.6,33.0,30.06,NNW,330,0.0,0.0,68,0.00,,,0.00,weatherlink.com 1.10,2013-05-14 00:55:00,
2013-05-13 21:10:00,40.0,31.0,30.07,NNW,331,0.0,0.0,70,0.00,,,0.00,weatherlink.com 1.10,2013-05-14 01:10:00,
2013-05-13 21:25:00,38.9,33.0,30.07,NNW,331,0.0,0.0,79,0.00,,,0.00,weatherlink.com 1.10,2013-05-14 01:25:00,
2013-05-13 21:40:00,37.5,32.0,30.08,NNW,331,0.0,0.0,79,0.00,,,0.00,weatherlink.com 1.10,2013-05-14 01:40:00,
2013-05-13 21:55:00,36.3,32.0,30.09,NNW,331,0.0,0.0,83,0.00,,,0.00,weatherlink.com 1.10,2013-05-14 01:55:00,
2013-05-13 22:10:00,35.1,30.0,30.09,NNW,331,0.0,0.0,83,0.00,,,0.00,weatherlink.com 1.10,2013-05-14 02:10:00,
2013-05-13 22:25:00,34.0,30.0,30.09,NNE,15,0.0,0.0,85,0.00,,,0.00,weatherlink.com 1.10,2013-05-14 02:25:00,
2013-05-13 22:40:00,34.3,31.0,30.10,North,353,0.0,0.0,87,0.00,,,0.00,weatherlink.com 1.10,2013-05-14 02:40:00,
2013-05-13 22:55:00,33.5,30.0,30.10,North,353,0.0,0.0,88,0.00,,,0.00,weatherlink.com 1.10,2013-05-14 02:55:00,
2013-05-13 23:10:00,33.2,30.0,30.10,North,353,0.0,0.0,88,0.00,,,0.00,weatherlink.com 1.10,2013-05-14 03:10:00,
2013-05-13 23:25:00,32.8,30.0,30.10,North,353,0.0,0.0,89,0.00,,,0.00,weatherlink.com 1.10,2013-05-14 03:25:00,
2013-05-13 23:40:00,32.4,30.0,30.11,North,353,0.0,0.0,89,0.00,,,0.00,weatherlink.com 1.10,2013-05-14 03:40:00,
2013-05-13 23:55:00,32.1,29.0,30.11,North,353,0.0,0.0,89,0.00,,,0.00,weatherlink.com 1.10,2013-05-14 03:55:00,